sensor_id;sensor_type;location;lat;lon;timestamp;pressure;altitude;pressure_sealevel;temperature;humidity
34925;BME280;21130;51.728;8.748;2022-12-10T00:01:54;99622.00;;;-3.29;100.00
34925;BME280;21130;51.728;8.748;2022-12-10T00:04:21;99615.03;;;-3.23;100.00
34925;BME280;21130;51.728;8.748;2022-12-10T00:06:47;99610.75;;;-3.17;100.00
34925;BME280;21130;51.728;8.748;2022-12-10T00:09:17;99613.78;;;-3.12;100.00
34925;BME280;21130;51.728;8.748;2022-12-10T00:11:44;99617.53;;;-3.13;100.00
34925;BME280;21130;51.728;8.748;2022-12-10T00:14:11;99621.16;;;-2.98;100.00
34925;BME280;21130;51.728;8.748;2022-12-10T00:16:39;99625.41;;;-3.04;100.00
34925;BME280;21130;51.728;8.748;2022-12-10T00:19:26;99623.47;;;-3.18;100.00
34925;BME280;21130;51.728;8.748;2022-12-10T00:22:10;99631.31;;;-3.31;100.00
34925;BME280;21130;51.728;8.748;2022-12-10T00:24:58;99623.75;;;-3.44;100.00
34925;BME280;21130;51.728;8.748;2022-12-10T00:27:43;99629.75;;;-3.57;100.00
34925;BME280;21130;51.728;8.748;2022-12-10T00:30:11;99629.25;;;-3.60;100.00
34925;BME280;21130;51.728;8.748;2022-12-10T00:32:38;99633.84;;;-3.69;100.00
34925;BME280;21130;51.728;8.748;2022-12-10T00:35:05;99627.28;;;-3.75;100.00
34925;BME280;21130;51.728;8.748;2022-12-10T00:37:32;99634.25;;;-3.80;100.00
34925;BME280;21130;51.728;8.748;2022-12-10T00:40:00;99636.78;;;-3.87;100.00
34925;BME280;21130;51.728;8.748;2022-12-10T00:42:27;99632.25;;;-3.95;100.00
34925;BME280;21130;51.728;8.748;2022-12-10T00:44:53;99633.75;;;-3.92;100.00
34925;BME280;21130;51.728;8.748;2022-12-10T00:47:20;99638.00;;;-3.98;100.00
34925;BME280;21130;51.728;8.748;2022-12-10T00:49:46;99634.06;;;-3.87;100.00
34925;BME280;21130;51.728;8.748;2022-12-10T00:52:13;99627.84;;;-3.96;100.00
34925;BME280;21130;51.728;8.748;2022-12-10T00:54:39;99632.59;;;-3.98;100.00
34925;BME280;21130;51.728;8.748;2022-12-10T00:57:07;99641.59;;;-4.05;100.00
34925;BME280;21130;51.728;8.748;2022-12-10T00:59:34;99636.66;;;-4.10;100.00
34925;BME280;21130;51.728;8.748;2022-12-10T01:02:00;99639.53;;;-4.12;100.00
34925;BME280;21130;51.728;8.748;2022-12-10T01:04:27;99648.88;;;-4.06;100.00
34925;BME280;21130;51.728;8.748;2022-12-10T01:06:54;99643.44;;;-4.06;100.00
34925;BME280;21130;51.728;8.748;2022-12-10T01:09:22;99637.16;;;-4.06;100.00
34925;BME280;21130;51.728;8.748;2022-12-10T01:11:51;99653.41;;;-4.06;100.00
34925;BME280;21130;51.728;8.748;2022-12-10T01:14:21;99653.44;;;-3.98;100.00
34925;BME280;21130;51.728;8.748;2022-12-10T01:16:48;99669.00;;;-3.92;100.00
34925;BME280;21130;51.728;8.748;2022-12-10T01:19:15;99660.84;;;-3.84;100.00
34925;BME280;21130;51.728;8.748;2022-12-10T01:21:42;99655.56;;;-3.77;100.00
34925;BME280;21130;51.728;8.748;2022-12-10T01:24:08;99669.97;;;-3.77;100.00
34925;BME280;21130;51.728;8.748;2022-12-10T01:26:36;99670.50;;;-3.81;100.00
34925;BME280;21130;51.728;8.748;2022-12-10T01:29:04;99676.44;;;-3.86;100.00
34925;BME280;21130;51.728;8.748;2022-12-10T01:31:33;99670.69;;;-3.91;100.00
34925;BME280;21130;51.728;8.748;2022-12-10T01:34:01;99683.72;;;-3.95;100.00
34925;BME280;21130;51.728;8.748;2022-12-10T01:36:31;99679.69;;;-3.99;100.00
34925;BME280;21130;51.728;8.748;2022-12-10T01:38:58;99677.97;;;-4.00;100.00
34925;BME280;21130;51.728;8.748;2022-12-10T01:41:27;99678.13;;;-4.01;100.00
34925;BME280;21130;51.728;8.748;2022-12-10T01:43:56;99685.63;;;-4.03;100.00
34925;BME280;21130;51.728;8.748;2022-12-10T01:46:26;99671.88;;;-4.02;100.00
34925;BME280;21130;51.728;8.748;2022-12-10T01:48:54;99671.56;;;-3.99;100.00
34925;BME280;21130;51.728;8.748;2022-12-10T01:51:22;99679.16;;;-3.94;100.00
34925;BME280;21130;51.728;8.748;2022-12-10T01:53:50;99671.19;;;-3.87;100.00
34925;BME280;21130;51.728;8.748;2022-12-10T01:56:17;99674.09;;;-3.97;100.00
34925;BME280;21130;51.728;8.748;2022-12-10T01:58:45;99674.09;;;-4.05;100.00
34925;BME280;21130;51.728;8.748;2022-12-10T02:01:16;99668.69;;;-4.14;100.00
34925;BME280;21130;51.728;8.748;2022-12-10T02:03:56;99665.66;;;-4.19;100.00
34925;BME280;21130;51.728;8.748;2022-12-10T02:06:32;99674.09;;;-4.22;100.00
34925;BME280;21130;51.728;8.748;2022-12-10T02:09:09;99679.88;;;-4.25;100.00
34925;BME280;21130;51.728;8.748;2022-12-10T02:11:42;99678.00;;;-4.32;100.00
34925;BME280;21130;51.728;8.748;2022-12-10T02:14:15;99683.25;;;-4.39;100.00
34925;BME280;21130;51.728;8.748;2022-12-10T02:16:47;99677.81;;;-4.47;100.00
34925;BME280;21130;51.728;8.748;2022-12-10T02:19:22;99681.72;;;-4.58;100.00
34925;BME280;21130;51.728;8.748;2022-12-10T02:21:53;99678.81;;;-4.65;100.00
34925;BME280;21130;51.728;8.748;2022-12-10T02:24:27;99678.66;;;-4.71;100.00
34925;BME280;21130;51.728;8.748;2022-12-10T02:27:00;99680.16;;;-4.77;100.00
34925;BME280;21130;51.728;8.748;2022-12-10T02:32:42;99676.25;;;-4.83;100.00
34925;BME280;21130;51.728;8.748;2022-12-10T02:35:14;99676.59;;;-4.86;100.00
34925;BME280;21130;51.728;8.748;2022-12-10T02:37:45;99679.66;;;-4.89;100.00
34925;BME280;21130;51.728;8.748;2022-12-10T02:40:17;99683.53;;;-4.91;100.00
34925;BME280;21130;51.728;8.748;2022-12-10T02:42:46;99674.72;;;-4.93;100.00
34925;BME280;21130;51.728;8.748;2022-12-10T02:45:15;99685.69;;;-4.95;100.00
34925;BME280;21130;51.728;8.748;2022-12-10T02:47:44;99679.59;;;-4.97;100.00
34925;BME280;21130;51.728;8.748;2022-12-10T02:50:12;99685.88;;;-4.96;100.00
34925;BME280;21130;51.728;8.748;2022-12-10T02:52:40;99685.88;;;-4.96;100.00
34925;BME280;21130;51.728;8.748;2022-12-10T02:55:10;99686.19;;;-5.00;100.00
34925;BME280;21130;51.728;8.748;2022-12-10T02:57:42;99697.00;;;-5.00;100.00
34925;BME280;21130;51.728;8.748;2022-12-10T03:00:13;99694.16;;;-4.98;100.00
34925;BME280;21130;51.728;8.748;2022-12-10T03:02:54;99689.44;;;-4.96;100.00
34925;BME280;21130;51.728;8.748;2022-12-10T03:05:33;99691.59;;;-5.00;100.00
34925;BME280;21130;51.728;8.748;2022-12-10T03:08:05;99693.31;;;-4.98;100.00
34925;BME280;21130;51.728;8.748;2022-12-10T03:10:39;99689.09;;;-5.01;100.00
34925;BME280;21130;51.728;8.748;2022-12-10T03:13:10;99692.97;;;-5.04;100.00
34925;BME280;21130;51.728;8.748;2022-12-10T03:15:42;99697.00;;;-5.08;100.00
34925;BME280;21130;51.728;8.748;2022-12-10T03:18:14;99690.06;;;-5.10;100.00
34925;BME280;21130;51.728;8.748;2022-12-10T03:20:45;99694.16;;;-4.98;100.00
34925;BME280;21130;51.728;8.748;2022-12-10T03:23:15;99678.41;;;-5.11;100.00
34925;BME280;21130;51.728;8.748;2022-12-10T03:25:43;99687.16;;;-5.17;100.00
34925;BME280;21130;51.728;8.748;2022-12-10T03:28:10;99682.56;;;-5.25;100.00
34925;BME280;21130;51.728;8.748;2022-12-10T03:30:38;99676.97;;;-5.31;100.00
34925;BME280;21130;51.728;8.748;2022-12-10T03:33:06;99683.03;;;-5.37;100.00
34925;BME280;21130;51.728;8.748;2022-12-10T03:35:35;99676.56;;;-5.45;100.00
34925;BME280;21130;51.728;8.748;2022-12-10T03:38:01;99672.50;;;-5.49;100.00
34925;BME280;21130;51.728;8.748;2022-12-10T03:40:28;99669.81;;;-5.49;100.00
34925;BME280;21130;51.728;8.748;2022-12-10T03:42:55;99682.78;;;-5.52;100.00
34925;BME280;21130;51.728;8.748;2022-12-10T03:45:21;99676.88;;;-5.56;100.00
34925;BME280;21130;51.728;8.748;2022-12-10T03:47:48;99679.34;;;-5.62;100.00
34925;BME280;21130;51.728;8.748;2022-12-10T03:50:15;99681.34;;;-5.65;100.00
34925;BME280;21130;51.728;8.748;2022-12-10T03:52:43;99682.84;;;-5.70;100.00
34925;BME280;21130;51.728;8.748;2022-12-10T03:55:10;99686.22;;;-5.76;100.00
34925;BME280;21130;51.728;8.748;2022-12-10T03:57:37;99686.50;;;-5.79;100.00
34925;BME280;21130;51.728;8.748;2022-12-10T04:00:05;99698.34;;;-5.80;100.00
34925;BME280;21130;51.728;8.748;2022-12-10T04:02:32;99694.31;;;-5.76;100.00
34925;BME280;21130;51.728;8.748;2022-12-10T04:04:59;99701.19;;;-5.82;100.00
34925;BME280;21130;51.728;8.748;2022-12-10T04:07:25;99702.53;;;-5.86;100.00
34925;BME280;21130;51.728;8.748;2022-12-10T04:09:53;99696.59;;;-5.90;100.00
34925;BME280;21130;51.728;8.748;2022-12-10T04:12:20;99702.00;;;-5.90;100.00
34925;BME280;21130;51.728;8.748;2022-12-10T04:14:46;99711.25;;;-5.92;100.00
34925;BME280;21130;51.728;8.748;2022-12-10T04:17:31;99702.66;;;-5.96;100.00
34925;BME280;21130;51.728;8.748;2022-12-10T04:19:58;99708.06;;;-5.96;100.00
34925;BME280;21130;51.728;8.748;2022-12-10T04:22:25;99703.38;;;-5.94;100.00
34925;BME280;21130;51.728;8.748;2022-12-10T04:25:12;99708.56;;;-5.92;100.00
34925;BME280;21130;51.728;8.748;2022-12-10T04:27:56;99708.63;;;-5.84;100.00
34925;BME280;21130;51.728;8.748;2022-12-10T04:30:23;99702.44;;;-5.76;100.00
34925;BME280;21130;51.728;8.748;2022-12-10T04:32:50;99701.44;;;-5.67;100.00
34925;BME280;21130;51.728;8.748;2022-12-10T04:35:16;99706.94;;;-5.59;100.00
34925;BME280;21130;51.728;8.748;2022-12-10T04:37:43;99694.44;;;-5.52;100.00
34925;BME280;21130;51.728;8.748;2022-12-10T04:40:15;99695.34;;;-5.43;100.00
34925;BME280;21130;51.728;8.748;2022-12-10T04:42:41;99701.47;;;-5.33;100.00
34925;BME280;21130;51.728;8.748;2022-12-10T04:45:09;99697.94;;;-5.25;100.00
34925;BME280;21130;51.728;8.748;2022-12-10T04:47:35;99701.53;;;-5.16;100.00
34925;BME280;21130;51.728;8.748;2022-12-10T04:50:02;99696.84;;;-5.06;100.00
34925;BME280;21130;51.728;8.748;2022-12-10T04:52:29;99707.84;;;-5.00;100.00
34925;BME280;21130;51.728;8.748;2022-12-10T04:54:55;99703.47;;;-4.92;100.00
34925;BME280;21130;51.728;8.748;2022-12-10T04:57:23;99701.78;;;-4.85;100.00
34925;BME280;21130;51.728;8.748;2022-12-10T04:59:50;99710.94;;;-4.78;100.00
34925;BME280;21130;51.728;8.748;2022-12-10T05:02:16;99700.63;;;-4.74;100.00
34925;BME280;21130;51.728;8.748;2022-12-10T05:04:43;99710.47;;;-4.65;100.00
34925;BME280;21130;51.728;8.748;2022-12-10T05:07:09;99718.59;;;-4.57;100.00
34925;BME280;21130;51.728;8.748;2022-12-10T05:09:37;99715.59;;;-4.46;100.00
34925;BME280;21130;51.728;8.748;2022-12-10T05:12:04;99708.97;;;-4.43;100.00
34925;BME280;21130;51.728;8.748;2022-12-10T05:14:32;99704.06;;;-4.40;100.00
34925;BME280;21130;51.728;8.748;2022-12-10T05:16:58;99708.97;;;-4.35;100.00
34925;BME280;21130;51.728;8.748;2022-12-10T05:19:25;99702.88;;;-4.29;100.00
34925;BME280;21130;51.728;8.748;2022-12-10T05:21:52;99708.81;;;-4.25;100.00
34925;BME280;21130;51.728;8.748;2022-12-10T05:24:37;99710.53;;;-4.16;100.00
34925;BME280;21130;51.728;8.748;2022-12-10T05:27:04;99703.56;;;-4.10;100.00
34925;BME280;21130;51.728;8.748;2022-12-10T05:29:33;99718.81;;;-4.09;100.00
34925;BME280;21130;51.728;8.748;2022-12-10T05:31:59;99707.63;;;-4.06;100.00
34925;BME280;21130;51.728;8.748;2022-12-10T05:34:26;99713.72;;;-4.04;100.00
34925;BME280;21130;51.728;8.748;2022-12-10T05:36:52;99713.72;;;-4.04;100.00
34925;BME280;21130;51.728;8.748;2022-12-10T05:39:19;99720.50;;;-4.00;100.00
34925;BME280;21130;51.728;8.748;2022-12-10T05:41:46;99728.81;;;-3.94;100.00
34925;BME280;21130;51.728;8.748;2022-12-10T05:44:13;99723.19;;;-3.92;100.00
34925;BME280;21130;51.728;8.748;2022-12-10T05:46:40;99719.47;;;-3.83;100.00
34925;BME280;21130;51.728;8.748;2022-12-10T05:49:07;99716.41;;;-3.80;100.00
34925;BME280;21130;51.728;8.748;2022-12-10T05:51:36;99727.75;;;-3.76;100.00
34925;BME280;21130;51.728;8.748;2022-12-10T05:54:04;99735.22;;;-3.70;100.00
34925;BME280;21130;51.728;8.748;2022-12-10T05:56:31;99732.50;;;-3.70;100.00
34925;BME280;21130;51.728;8.748;2022-12-10T05:58:59;99733.34;;;-3.70;100.00
34925;BME280;21130;51.728;8.748;2022-12-10T06:01:28;99732.84;;;-3.65;100.00
34925;BME280;21130;51.728;8.748;2022-12-10T06:03:58;99739.09;;;-3.64;100.00
34925;BME280;21130;51.728;8.748;2022-12-10T06:06:26;99736.03;;;-3.61;100.00
34925;BME280;21130;51.728;8.748;2022-12-10T06:08:54;99735.03;;;-3.60;100.00
34925;BME280;21130;51.728;8.748;2022-12-10T06:11:21;99741.13;;;-3.58;100.00
34925;BME280;21130;51.728;8.748;2022-12-10T06:13:48;99736.34;;;-3.56;100.00
34925;BME280;21130;51.728;8.748;2022-12-10T06:16:14;99734.53;;;-3.56;100.00
34925;BME280;21130;51.728;8.748;2022-12-10T06:18:41;99733.66;;;-3.56;100.00
34925;BME280;21130;51.728;8.748;2022-12-10T06:21:11;99734.31;;;-3.54;100.00
34925;BME280;21130;51.728;8.748;2022-12-10T06:23:39;99731.78;;;-3.48;100.00
34925;BME280;21130;51.728;8.748;2022-12-10T06:26:06;99733.09;;;-3.35;100.00
34925;BME280;21130;51.728;8.748;2022-12-10T06:28:33;99737.69;;;-3.36;100.00
34925;BME280;21130;51.728;8.748;2022-12-10T06:30:59;99737.38;;;-3.41;100.00
34925;BME280;21130;51.728;8.748;2022-12-10T06:33:26;99737.50;;;-3.34;100.00
34925;BME280;21130;51.728;8.748;2022-12-10T06:35:53;99741.22;;;-3.27;100.00
34925;BME280;21130;51.728;8.748;2022-12-10T06:38:22;99742.94;;;-3.34;100.00
34925;BME280;21130;51.728;8.748;2022-12-10T06:40:49;99739.03;;;-3.32;100.00
34925;BME280;21130;51.728;8.748;2022-12-10T06:43:16;99742.09;;;-3.35;100.00
34925;BME280;21130;51.728;8.748;2022-12-10T06:45:42;99735.81;;;-3.35;100.00
34925;BME280;21130;51.728;8.748;2022-12-10T06:48:09;99737.66;;;-3.28;100.00
34925;BME280;21130;51.728;8.748;2022-12-10T06:50:36;99743.09;;;-3.28;100.00
34925;BME280;21130;51.728;8.748;2022-12-10T06:53:03;99743.09;;;-3.28;100.00
34925;BME280;21130;51.728;8.748;2022-12-10T06:55:31;99729.84;;;-3.22;100.00
34925;BME280;21130;51.728;8.748;2022-12-10T06:57:57;99743.09;;;-3.28;100.00
34925;BME280;21130;51.728;8.748;2022-12-10T07:00:24;99747.16;;;-3.23;100.00
34925;BME280;21130;51.728;8.748;2022-12-10T07:02:50;99738.13;;;-3.16;100.00
34925;BME280;21130;51.728;8.748;2022-12-10T07:05:17;99735.44;;;-3.16;100.00
34925;BME280;21130;51.728;8.748;2022-12-10T07:07:43;99739.97;;;-3.16;100.00
34925;BME280;21130;51.728;8.748;2022-12-10T07:10:10;99744.75;;;-3.18;100.00
34925;BME280;21130;51.728;8.748;2022-12-10T07:12:38;99744.22;;;-3.14;100.00
34925;BME280;21130;51.728;8.748;2022-12-10T07:15:05;99752.56;;;-3.15;100.00
34925;BME280;21130;51.728;8.748;2022-12-10T07:17:32;99757.97;;;-3.15;100.00
34925;BME280;21130;51.728;8.748;2022-12-10T07:19:58;99755.94;;;-3.13;100.00
34925;BME280;21130;51.728;8.748;2022-12-10T07:22:25;99761.38;;;-3.13;100.00
34925;BME280;21130;51.728;8.748;2022-12-10T07:24:51;99764.72;;;-3.11;100.00
34925;BME280;21130;51.728;8.748;2022-12-10T07:27:18;99768.13;;;-3.09;100.00
34925;BME280;21130;51.728;8.748;2022-12-10T07:29:46;99771.50;;;-3.07;100.00
34925;BME280;21130;51.728;8.748;2022-12-10T07:32:12;99772.34;;;-3.07;100.00
34925;BME280;21130;51.728;8.748;2022-12-10T07:34:39;99780.81;;;-3.01;100.00
34925;BME280;21130;51.728;8.748;2022-12-10T07:37:05;99776.22;;;-3.01;100.00
34925;BME280;21130;51.728;8.748;2022-12-10T07:39:32;99777.78;;;-2.98;100.00
34925;BME280;21130;51.728;8.748;2022-12-10T07:41:59;99783.84;;;-2.96;100.00
34925;BME280;21130;51.728;8.748;2022-12-10T07:44:26;99795.38;;;-2.94;100.00
34925;BME280;21130;51.728;8.748;2022-12-10T07:46:54;99794.00;;;-2.82;100.00
34925;BME280;21130;51.728;8.748;2022-12-10T07:49:21;99782.59;;;-2.77;100.00
34925;BME280;21130;51.728;8.748;2022-12-10T07:51:49;99792.94;;;-2.81;100.00
34925;BME280;21130;51.728;8.748;2022-12-10T07:54:16;99796.34;;;-2.79;100.00
34925;BME280;21130;51.728;8.748;2022-12-10T07:56:43;99800.78;;;-2.78;100.00
34925;BME280;21130;51.728;8.748;2022-12-10T07:59:10;99800.94;;;-2.79;100.00
34925;BME280;21130;51.728;8.748;2022-12-10T08:01:36;99800.56;;;-2.76;100.00
34925;BME280;21130;51.728;8.748;2022-12-10T08:04:04;99801.25;;;-2.74;100.00
34925;BME280;21130;51.728;8.748;2022-12-10T08:06:31;99810.41;;;-2.67;100.00
34925;BME280;21130;51.728;8.748;2022-12-10T08:08:59;99804.81;;;-2.66;100.00
34925;BME280;21130;51.728;8.748;2022-12-10T08:11:26;99807.16;;;-2.63;100.00
34925;BME280;21130;51.728;8.748;2022-12-10T08:13:53;99806.78;;;-2.59;100.00
34925;BME280;21130;51.728;8.748;2022-12-10T08:16:21;99810.97;;;-2.49;100.00
34925;BME280;21130;51.728;8.748;2022-12-10T08:18:50;99808.78;;;-2.53;100.00
34925;BME280;21130;51.728;8.748;2022-12-10T08:21:20;99804.38;;;-2.54;100.00
34925;BME280;21130;51.728;8.748;2022-12-10T08:23:48;99808.09;;;-2.47;100.00
34925;BME280;21130;51.728;8.748;2022-12-10T08:26:16;99813.84;;;-2.42;100.00
34925;BME280;21130;51.728;8.748;2022-12-10T08:28:43;99807.69;;;-2.36;100.00
34925;BME280;21130;51.728;8.748;2022-12-10T08:31:12;99814.31;;;-2.39;100.00
34925;BME280;21130;51.728;8.748;2022-12-10T08:33:40;99817.72;;;-2.36;100.00
34925;BME280;21130;51.728;8.748;2022-12-10T08:36:08;99821.94;;;-2.34;100.00
34925;BME280;21130;51.728;8.748;2022-12-10T08:38:37;99812.56;;;-2.23;100.00
34925;BME280;21130;51.728;8.748;2022-12-10T08:41:09;99820.03;;;-2.25;100.00
34925;BME280;21130;51.728;8.748;2022-12-10T08:43:36;99822.56;;;-2.24;100.00
34925;BME280;21130;51.728;8.748;2022-12-10T08:46:04;99819.97;;;-2.17;100.00
34925;BME280;21130;51.728;8.748;2022-12-10T08:48:31;99820.97;;;-2.10;100.00
34925;BME280;21130;51.728;8.748;2022-12-10T08:50:59;99819.94;;;-2.09;100.00
34925;BME280;21130;51.728;8.748;2022-12-10T08:53:25;99823.94;;;-1.97;100.00
34925;BME280;21130;51.728;8.748;2022-12-10T08:55:53;99813.94;;;-2.04;100.00
34925;BME280;21130;51.728;8.748;2022-12-10T08:58:20;99812.56;;;-2.00;100.00
34925;BME280;21130;51.728;8.748;2022-12-10T09:00:48;99820.50;;;-1.90;100.00
34925;BME280;21130;51.728;8.748;2022-12-10T09:03:15;99808.94;;;-1.92;100.00
34925;BME280;21130;51.728;8.748;2022-12-10T09:05:42;99818.41;;;-1.88;100.00
34925;BME280;21130;51.728;8.748;2022-12-10T09:08:09;99819.94;;;-1.86;100.00
34925;BME280;21130;51.728;8.748;2022-12-10T09:10:36;99828.16;;;-1.94;100.00
34925;BME280;21130;51.728;8.748;2022-12-10T09:13:05;99831.06;;;-1.96;100.00
34925;BME280;21130;51.728;8.748;2022-12-10T09:15:31;99833.06;;;-1.89;100.00
34925;BME280;21130;51.728;8.748;2022-12-10T09:17:58;99841.69;;;-1.86;100.00
34925;BME280;21130;51.728;8.748;2022-12-10T09:20:24;99843.34;;;-1.77;100.00
34925;BME280;21130;51.728;8.748;2022-12-10T09:22:51;99845.69;;;-1.74;100.00
34925;BME280;21130;51.728;8.748;2022-12-10T09:25:18;99848.53;;;-1.67;100.00
34925;BME280;21130;51.728;8.748;2022-12-10T09:27:46;99855.72;;;-1.74;100.00
34925;BME280;21130;51.728;8.748;2022-12-10T09:30:15;99843.84;;;-1.73;100.00
34925;BME280;21130;51.728;8.748;2022-12-10T09:32:44;99860.78;;;-1.71;100.00
34925;BME280;21130;51.728;8.748;2022-12-10T09:35:12;99854.94;;;-1.60;100.00
34925;BME280;21130;51.728;8.748;2022-12-10T09:37:38;99857.38;;;-1.65;100.00
34925;BME280;21130;51.728;8.748;2022-12-10T09:40:06;99858.50;;;-1.59;100.00
34925;BME280;21130;51.728;8.748;2022-12-10T09:42:39;99856.69;;;-1.67;100.00
34925;BME280;21130;51.728;8.748;2022-12-10T09:45:17;99861.00;;;-1.72;100.00
34925;BME280;21130;51.728;8.748;2022-12-10T09:47:52;99851.94;;;-1.65;100.00
34925;BME280;21130;51.728;8.748;2022-12-10T09:50:26;99855.91;;;-1.53;100.00
34925;BME280;21130;51.728;8.748;2022-12-10T09:52:54;99852.81;;;-1.49;100.00
34925;BME280;21130;51.728;8.748;2022-12-10T09:55:30;99858.25;;;-1.49;100.00
34925;BME280;21130;51.728;8.748;2022-12-10T09:58:00;99851.44;;;-1.45;100.00
34925;BME280;21130;51.728;8.748;2022-12-10T10:00:34;99850.50;;;-1.38;100.00
34925;BME280;21130;51.728;8.748;2022-12-10T10:03:01;99851.34;;;-1.37;100.00
34925;BME280;21130;51.728;8.748;2022-12-10T10:05:30;99849.00;;;-1.40;100.00
34925;BME280;21130;51.728;8.748;2022-12-10T10:07:59;99845.72;;;-1.36;100.00
34925;BME280;21130;51.728;8.748;2022-12-10T10:10:29;99842.34;;;-1.38;100.00
34925;BME280;21130;51.728;8.748;2022-12-10T10:13:00;99840.94;;;-1.34;100.00
34925;BME280;21130;51.728;8.748;2022-12-10T10:15:31;99844.50;;;-1.33;100.00
34925;BME280;21130;51.728;8.748;2022-12-10T10:18:02;99845.81;;;-1.29;100.00
34925;BME280;21130;51.728;8.748;2022-12-10T10:20:31;99838.50;;;-1.28;100.00
34925;BME280;21130;51.728;8.748;2022-12-10T10:22:59;99843.47;;;-1.32;100.00
34925;BME280;21130;51.728;8.748;2022-12-10T10:25:26;99844.88;;;-1.36;100.00
34925;BME280;21130;51.728;8.748;2022-12-10T10:27:54;99844.63;;;-1.26;100.00
34925;BME280;21130;51.728;8.748;2022-12-10T10:30:22;99851.09;;;-1.27;100.00
34925;BME280;21130;51.728;8.748;2022-12-10T10:32:52;99847.63;;;-1.21;100.00
34925;BME280;21130;51.728;8.748;2022-12-10T10:35:25;99851.28;;;-1.29;100.00
34925;BME280;21130;51.728;8.748;2022-12-10T10:37:56;99849.59;;;-1.30;100.00
34925;BME280;21130;51.728;8.748;2022-12-10T10:40:28;99849.78;;;-1.32;100.00
34925;BME280;21130;51.728;8.748;2022-12-10T10:42:57;99848.72;;;-1.31;100.00
34925;BME280;21130;51.728;8.748;2022-12-10T10:45:39;99847.22;;;-1.33;100.00
34925;BME280;21130;51.728;8.748;2022-12-10T10:48:14;99841.13;;;-1.35;100.00
34925;BME280;21130;51.728;8.748;2022-12-10T10:50:43;99845.25;;;-1.39;100.00
34925;BME280;21130;51.728;8.748;2022-12-10T10:53:25;99841.56;;;-1.46;100.00
34925;BME280;21130;51.728;8.748;2022-12-10T10:55:54;99833.78;;;-1.49;100.00
34925;BME280;21130;51.728;8.748;2022-12-10T10:58:22;99847.22;;;-1.48;100.00
34925;BME280;21130;51.728;8.748;2022-12-10T11:00:54;99847.22;;;-1.33;100.00
34925;BME280;21130;51.728;8.748;2022-12-10T11:03:22;99845.16;;;-1.31;100.00
34925;BME280;21130;51.728;8.748;2022-12-10T11:05:49;99852.94;;;-1.28;100.00
34925;BME280;21130;51.728;8.748;2022-12-10T11:08:17;99853.63;;;-1.26;100.00
34925;BME280;21130;51.728;8.748;2022-12-10T11:10:50;99857.50;;;-1.20;100.00
34925;BME280;21130;51.728;8.748;2022-12-10T11:13:23;99850.47;;;-1.15;100.00
34925;BME280;21130;51.728;8.748;2022-12-10T11:16:00;99851.69;;;-1.17;100.00
34925;BME280;21130;51.728;8.748;2022-12-10T11:18:32;99857.69;;;-1.22;100.00
34925;BME280;21130;51.728;8.748;2022-12-10T11:21:02;99854.84;;;-1.28;100.00
34925;BME280;21130;51.728;8.748;2022-12-10T11:23:30;99852.91;;;-1.20;100.00
34925;BME280;21130;51.728;8.748;2022-12-10T11:26:05;99851.56;;;-1.24;100.00
34925;BME280;21130;51.728;8.748;2022-12-10T11:28:46;99846.63;;;-1.20;100.00
34925;BME280;21130;51.728;8.748;2022-12-10T11:31:29;99842.72;;;-1.26;100.00
34925;BME280;21130;51.728;8.748;2022-12-10T11:34:05;99847.88;;;-1.31;100.00
34925;BME280;21130;51.728;8.748;2022-12-10T11:36:39;99847.63;;;-1.21;100.00
34925;BME280;21130;51.728;8.748;2022-12-10T11:39:20;99842.66;;;-1.33;100.00
34925;BME280;21130;51.728;8.748;2022-12-10T11:41:56;99846.00;;;-1.45;100.00
34925;BME280;21130;51.728;8.748;2022-12-10T11:44:35;99845.66;;;-1.27;100.00
34925;BME280;21130;51.728;8.748;2022-12-10T11:47:21;99846.88;;;-1.30;100.00
34925;BME280;21130;51.728;8.748;2022-12-10T11:49:59;99847.97;;;-1.39;100.00
34925;BME280;21130;51.728;8.748;2022-12-10T11:52:40;99856.31;;;-1.41;100.00
34925;BME280;21130;51.728;8.748;2022-12-10T11:55:24;99844.19;;;-1.38;100.00
34925;BME280;21130;51.728;8.748;2022-12-10T11:58:06;99837.09;;;-1.39;100.00
34925;BME280;21130;51.728;8.748;2022-12-10T12:00:48;99844.69;;;-1.35;100.00
34925;BME280;21130;51.728;8.748;2022-12-10T12:03:36;99854.25;;;-1.39;100.00
34925;BME280;21130;51.728;8.748;2022-12-10T12:06:28;99846.91;;;-1.38;100.00
34925;BME280;21130;51.728;8.748;2022-12-10T12:09:07;99842.91;;;-1.42;100.00
34925;BME280;21130;51.728;8.748;2022-12-10T12:11:52;99847.41;;;-1.35;100.00
34925;BME280;21130;51.728;8.748;2022-12-10T12:14:24;99851.44;;;-1.31;100.00
34925;BME280;21130;51.728;8.748;2022-12-10T12:17:00;99860.22;;;-1.20;100.00
34925;BME280;21130;51.728;8.748;2022-12-10T12:19:33;99853.31;;;-1.31;100.00
34925;BME280;21130;51.728;8.748;2022-12-10T12:22:11;99862.00;;;-1.27;100.00
34925;BME280;21130;51.728;8.748;2022-12-10T12:24:41;99858.06;;;-1.25;100.00
34925;BME280;21130;51.728;8.748;2022-12-10T12:27:16;99862.00;;;-1.27;100.00
34925;BME280;21130;51.728;8.748;2022-12-10T12:29:58;99864.97;;;-1.37;100.00
34925;BME280;21130;51.728;8.748;2022-12-10T12:32:30;99864.41;;;-1.33;100.00
34925;BME280;21130;51.728;8.748;2022-12-10T12:35:01;99861.13;;;-1.28;100.00
34925;BME280;21130;51.728;8.748;2022-12-10T12:37:36;99868.06;;;-1.25;100.00
34925;BME280;21130;51.728;8.748;2022-12-10T12:40:10;99869.50;;;-1.29;100.00
34925;BME280;21130;51.728;8.748;2022-12-10T12:42:41;99876.53;;;-1.35;100.00
34925;BME280;21130;51.728;8.748;2022-12-10T12:45:13;99871.06;;;-1.35;100.00
34925;BME280;21130;51.728;8.748;2022-12-10T12:47:45;99863.91;;;-1.36;100.00
34925;BME280;21130;51.728;8.748;2022-12-10T12:50:23;99867.56;;;-1.44;100.00
34925;BME280;21130;51.728;8.748;2022-12-10T12:52:53;99875.09;;;-1.31;100.00
34925;BME280;21130;51.728;8.748;2022-12-10T12:55:29;99877.66;;;-1.29;100.00
34925;BME280;21130;51.728;8.748;2022-12-10T12:58:13;99875.19;;;-1.39;100.00
34925;BME280;21130;51.728;8.748;2022-12-10T13:00:43;99877.59;;;-1.44;100.00
34925;BME280;21130;51.728;8.748;2022-12-10T13:03:24;99879.00;;;-1.48;100.00
34925;BME280;21130;51.728;8.748;2022-12-10T13:05:53;99879.88;;;-1.48;100.00
34925;BME280;21130;51.728;8.748;2022-12-10T13:08:29;99876.78;;;-1.45;100.00